createdAt,value
2023-05-19T00:01:00.561Z,2.20
2023-05-19T00:03:30.439Z,2.28
2023-05-19T00:05:59.290Z,2.28
2023-05-19T00:08:32.560Z,2.20
2023-05-19T00:11:00.445Z,2.35
2023-05-19T00:13:28.288Z,2.10
2023-05-19T00:15:57.105Z,2.30
2023-05-19T00:18:24.487Z,2.10
2023-05-19T00:20:55.022Z,2.20
2023-05-19T00:23:22.962Z,1.90
2023-05-19T00:25:51.593Z,2.30
2023-05-19T00:28:18.904Z,2.20
2023-05-19T00:30:52.846Z,2.03
2023-05-19T00:33:24.474Z,2.10
2023-05-19T00:35:52.484Z,2.00
2023-05-19T00:38:21.509Z,1.95
2023-05-19T00:40:51.844Z,2.40
2023-05-19T00:43:19.487Z,2.10
2023-05-19T00:45:47.008Z,2.28
2023-05-19T00:48:16.004Z,2.33
2023-05-19T00:50:44.073Z,1.92
2023-05-19T00:53:11.617Z,2.20
2023-05-19T00:55:46.930Z,2.03
2023-05-19T00:58:41.011Z,2.17
2023-05-19T01:01:11.575Z,2.40
2023-05-19T01:03:43.547Z,2.40
2023-05-19T01:06:15.352Z,2.10
2023-05-19T01:08:45.269Z,2.20
2023-05-19T01:11:24.304Z,2.00
2023-05-19T01:13:59.360Z,2.30
2023-05-19T01:16:36.816Z,2.35
2023-05-19T01:19:23.339Z,2.33
2023-05-19T01:22:25.657Z,2.15
2023-05-19T01:25:17.098Z,2.30
2023-05-19T01:27:45.565Z,2.17
2023-05-19T01:30:30.781Z,2.47
2023-05-19T01:33:03.067Z,2.45
2023-05-19T01:35:37.050Z,2.55
2023-05-19T01:38:06.679Z,2.10
2023-05-19T01:43:28.977Z,2.70
2023-05-19T01:45:59.331Z,2.65
2023-05-19T01:48:28.743Z,2.63
2023-05-19T01:50:58.844Z,3.03
2023-05-19T01:53:28.016Z,2.95
2023-05-19T01:55:57.801Z,3.17
2023-05-19T01:58:39.063Z,2.88
2023-05-19T02:01:14.787Z,2.97
2023-05-19T02:04:19.701Z,2.55
2023-05-19T02:07:18.587Z,2.83
2023-05-19T02:09:52.786Z,3.42
2023-05-19T02:12:26.572Z,2.63
2023-05-19T02:15:22.197Z,2.63
2023-05-19T02:18:00.301Z,2.72
2023-05-19T02:20:37.616Z,2.70
2023-05-19T02:23:07.817Z,2.90
2023-05-19T02:25:40.576Z,3.20
2023-05-19T02:28:13.755Z,3.35
2023-05-19T02:30:53.458Z,2.92
2023-05-19T02:33:27.498Z,3.13
2023-05-19T02:35:59.955Z,3.40
2023-05-19T02:38:28.268Z,3.67
2023-05-19T02:40:58.714Z,3.42
2023-05-19T02:43:27.526Z,3.40
2023-05-19T02:45:57.944Z,3.63
2023-05-19T02:48:31.281Z,4.05
2023-05-19T02:50:58.848Z,3.42
2023-05-19T02:53:31.217Z,3.72
2023-05-19T02:56:05.910Z,3.95
2023-05-19T02:58:42.734Z,3.72
2023-05-19T03:01:16.978Z,4.10
2023-05-19T03:03:48.527Z,4.03
2023-05-19T03:06:27.592Z,4.20
2023-05-19T03:08:55.281Z,3.93
2023-05-19T03:11:30.786Z,4.23
2023-05-19T03:14:11.789Z,4.27
2023-05-19T03:16:46.737Z,3.83
2023-05-19T03:19:18.504Z,4.07
2023-05-19T03:21:50.391Z,4.23
2023-05-19T03:24:22.382Z,4.60
2023-05-19T03:26:54.716Z,4.27
2023-05-19T03:29:24.320Z,4.90
2023-05-19T03:31:52.232Z,4.53
2023-05-19T03:34:26.798Z,4.20
2023-05-19T03:37:02.401Z,4.63
2023-05-19T03:39:36.902Z,4.40
2023-05-19T03:42:06.364Z,4.57
2023-05-19T03:44:36.049Z,4.40
2023-05-19T03:47:04.429Z,4.63
2023-05-19T03:49:56.361Z,5.00
2023-05-19T03:53:04.377Z,4.70
2023-05-19T03:55:45.392Z,4.25
2023-05-19T03:58:17.715Z,4.38
2023-05-19T04:00:59.266Z,4.60
2023-05-19T04:03:41.032Z,4.63
2023-05-19T04:06:12.237Z,4.60
2023-05-19T04:08:41.560Z,5.10
2023-05-19T04:11:12.437Z,4.70
2023-05-19T04:13:49.795Z,4.68
2023-05-19T04:16:19.687Z,5.03
2023-05-19T04:18:49.741Z,4.93
2023-05-19T04:21:19.918Z,4.97
2023-05-19T04:23:58.317Z,4.90
2023-05-19T04:26:34.600Z,4.60
2023-05-19T04:29:07.457Z,5.07
2023-05-19T04:31:49.335Z,4.50
2023-05-19T04:37:04.702Z,4.70
2023-05-19T04:39:36.893Z,5.27
2023-05-19T04:42:13.763Z,4.70
2023-05-19T04:44:59.072Z,5.07
2023-05-19T04:47:37.105Z,4.53
2023-05-19T04:50:33.777Z,5.10
2023-05-19T04:53:14.354Z,4.47
2023-05-19T04:55:46.107Z,4.30
2023-05-19T04:58:17.521Z,4.07
2023-05-19T05:01:08.373Z,4.00
2023-05-19T05:04:16.085Z,4.00
2023-05-19T05:06:55.889Z,4.43
2023-05-19T05:09:45.950Z,4.00
2023-05-19T05:15:03.126Z,3.75
2023-05-19T05:17:31.776Z,3.67
2023-05-19T05:20:00.652Z,3.80
2023-05-19T05:22:30.696Z,3.97
2023-05-19T05:25:06.395Z,4.00
2023-05-19T05:27:34.151Z,3.70
2023-05-19T05:30:05.472Z,3.63
2023-05-19T05:32:46.588Z,3.60
2023-05-19T05:35:31.244Z,3.65
2023-05-19T05:38:03.146Z,3.65
2023-05-19T05:40:31.044Z,3.67
2023-05-19T05:43:13.364Z,3.90
2023-05-19T05:46:11.536Z,3.60
2023-05-19T05:49:10.298Z,3.80
2023-05-19T05:52:01.523Z,3.40
2023-05-19T05:54:45.223Z,3.47
2023-05-19T05:57:15.312Z,3.75
2023-05-19T05:59:45.730Z,3.72
2023-05-19T06:02:13.443Z,3.50
2023-05-19T06:04:40.977Z,3.42
2023-05-19T06:07:09.307Z,3.20
2023-05-19T06:09:38.819Z,3.80
2023-05-19T06:12:09.849Z,3.60
2023-05-19T06:14:44.099Z,3.60
2023-05-19T06:17:40.120Z,3.40
2023-05-19T06:20:10.957Z,2.85
2023-05-19T06:22:38.509Z,3.20
2023-05-19T06:25:07.119Z,3.35
2023-05-19T06:27:35.674Z,3.17
2023-05-19T06:30:16.112Z,3.03
2023-05-19T06:33:00.675Z,3.00
2023-05-19T06:35:30.788Z,3.35
2023-05-19T06:38:24.159Z,3.50
2023-05-19T06:40:58.736Z,3.40
2023-05-19T06:43:26.222Z,3.30
2023-05-19T06:45:56.485Z,3.60
2023-05-19T06:48:28.272Z,3.20
2023-05-19T06:51:04.580Z,3.42
2023-05-19T06:53:35.158Z,3.35
2023-05-19T06:56:13.049Z,3.33
2023-05-19T07:01:45.011Z,3.40
2023-05-19T07:04:16.147Z,3.60
2023-05-19T07:06:52.123Z,3.75
2023-05-19T07:09:30.812Z,3.58
2023-05-19T07:18:04.769Z,3.70
2023-05-19T07:20:52.114Z,3.67
2023-05-19T07:23:22.553Z,4.03
2023-05-19T07:25:54.527Z,4.10
2023-05-19T07:28:37.779Z,4.35
2023-05-19T07:31:09.372Z,4.03
2023-05-19T07:33:53.684Z,3.78
2023-05-19T07:36:22.378Z,3.65
2023-05-19T07:38:51.993Z,3.80
2023-05-19T07:41:22.608Z,4.28
2023-05-19T07:43:57.426Z,4.38
2023-05-19T07:46:27.956Z,4.10
2023-05-19T07:48:57.083Z,3.78
2023-05-19T07:51:32.598Z,4.18
2023-05-19T07:54:13.214Z,4.05
2023-05-19T07:56:43.227Z,3.88
2023-05-19T07:59:13.642Z,4.43
2023-05-19T08:01:41.580Z,4.40
2023-05-19T08:04:25.902Z,4.28
2023-05-19T08:07:04.845Z,3.92
2023-05-19T08:09:39.523Z,4.68
2023-05-19T08:12:09.058Z,3.92
2023-05-19T08:14:44.246Z,4.28
2023-05-19T08:20:15.666Z,5.53
2023-05-19T08:22:56.820Z,5.97
2023-05-19T08:25:30.810Z,5.03
2023-05-19T08:28:19.347Z,5.85
2023-05-19T08:30:54.902Z,5.88
2023-05-19T08:33:25.242Z,7.75
2023-05-19T08:36:04.194Z,4.80
2023-05-19T08:38:33.551Z,4.55
2023-05-19T08:41:01.043Z,5.95
2023-05-19T08:43:28.560Z,5.70
2023-05-19T08:46:47.393Z,6.15
2023-05-19T08:49:20.494Z,5.60
2023-05-19T08:51:51.387Z,5.40
2023-05-19T08:54:20.894Z,4.82
2023-05-19T08:56:48.987Z,5.35
2023-05-19T08:59:21.661Z,6.65
2023-05-19T09:01:51.344Z,7.07
2023-05-19T09:04:24.216Z,5.95
2023-05-19T09:07:15.830Z,6.53
2023-05-19T09:10:01.861Z,6.63
2023-05-19T09:12:49.828Z,5.75
2023-05-19T09:15:44.543Z,8.70
2023-05-19T09:21:16.344Z,5.80
2023-05-19T09:23:47.805Z,5.93
2023-05-19T09:26:21.712Z,5.40
2023-05-19T09:28:52.042Z,5.68
2023-05-19T09:31:36.252Z,7.25
2023-05-19T09:34:06.640Z,8.75
2023-05-19T09:36:43.795Z,9.70
2023-05-19T09:39:20.004Z,6.00
2023-05-19T09:41:48.527Z,6.45
2023-05-19T09:44:33.938Z,6.35
2023-05-19T09:47:06.318Z,6.10
2023-05-19T09:49:34.510Z,6.35
2023-05-19T09:52:16.900Z,7.28
2023-05-19T09:54:44.334Z,6.45
2023-05-19T09:57:17.197Z,5.80
2023-05-19T09:59:51.156Z,6.20
2023-05-19T10:02:27.590Z,5.68
2023-05-19T10:04:55.820Z,5.95
2023-05-19T10:07:31.346Z,6.97
2023-05-19T10:09:59.505Z,6.13
2023-05-19T10:12:27.453Z,6.10
2023-05-19T10:14:55.189Z,5.93
2023-05-19T10:17:25.827Z,5.97
2023-05-19T10:19:56.858Z,6.07
2023-05-19T10:22:33.607Z,6.82
2023-05-19T10:25:07.015Z,7.53
2023-05-19T10:33:08.261Z,5.85
2023-05-19T10:35:58.133Z,6.22
2023-05-19T10:38:43.572Z,6.13
2023-05-19T10:41:15.234Z,6.28
2023-05-19T10:43:52.163Z,5.78
2023-05-19T10:46:24.056Z,6.57
2023-05-19T10:48:52.518Z,6.05
2023-05-19T10:51:20.132Z,6.65
2023-05-19T10:53:49.944Z,5.95
2023-05-19T10:56:37.199Z,6.32
2023-05-19T10:59:04.710Z,6.22
2023-05-19T11:01:33.709Z,6.20
2023-05-19T11:04:16.098Z,6.00
2023-05-19T11:06:51.882Z,6.18
2023-05-19T11:09:28.340Z,7.25
2023-05-19T11:12:07.555Z,6.40
2023-05-19T11:14:43.513Z,5.80
2023-05-19T11:17:16.739Z,6.18
2023-05-19T11:19:53.492Z,7.28
2023-05-19T11:22:25.378Z,5.70
2023-05-19T11:25:07.215Z,6.00
2023-05-19T11:27:39.421Z,5.68
2023-05-19T11:30:15.941Z,5.70
2023-05-19T11:32:47.255Z,5.45
2023-05-19T11:35:27.746Z,5.88
2023-05-19T11:38:16.919Z,6.15
2023-05-19T11:40:48.924Z,5.90
2023-05-19T11:43:20.045Z,5.75
2023-05-19T11:45:50.609Z,5.88
2023-05-19T11:48:32.577Z,5.63
2023-05-19T11:56:26.571Z,6.30
2023-05-19T11:59:04.638Z,5.70
2023-05-19T12:01:37.304Z,5.97
2023-05-19T12:06:56.001Z,5.97
2023-05-19T12:12:47.381Z,5.55
2023-05-19T12:15:24.404Z,6.18
2023-05-19T12:18:05.817Z,6.20
2023-05-19T12:20:37.473Z,5.75
2023-05-19T12:23:11.879Z,5.68
2023-05-19T12:25:45.416Z,6.07
2023-05-19T12:30:59.050Z,5.38
2023-05-19T12:33:27.275Z,6.10
2023-05-19T12:35:56.569Z,5.90
2023-05-19T12:38:24.306Z,6.30
2023-05-19T12:40:54.472Z,6.28
2023-05-19T12:43:26.031Z,5.55
2023-05-19T12:46:18.353Z,5.35
2023-05-19T12:48:59.955Z,5.85
2023-05-19T12:51:32.726Z,5.85
2023-05-19T12:54:14.878Z,5.70
2023-05-19T12:56:50.192Z,5.78
2023-05-19T12:59:38.543Z,5.60
2023-05-19T13:03:05.621Z,5.82
2023-05-19T13:05:43.809Z,6.00
2023-05-19T13:08:17.505Z,5.93
2023-05-19T13:10:46.415Z,5.88
2023-05-19T13:13:14.783Z,6.13
2023-05-19T13:15:47.566Z,5.90
2023-05-19T13:18:18.718Z,5.60
2023-05-19T13:20:51.273Z,6.82
2023-05-19T13:23:20.270Z,6.40
2023-05-19T13:25:50.983Z,6.00
2023-05-19T13:28:21.365Z,6.53
2023-05-19T13:30:49.950Z,6.15
2023-05-19T13:33:18.307Z,6.15
2023-05-19T13:35:46.677Z,6.03
2023-05-19T13:38:27.872Z,6.45
2023-05-19T13:40:56.626Z,6.80
2023-05-19T13:43:38.172Z,6.82
2023-05-19T13:46:19.268Z,6.60
2023-05-19T13:49:14.451Z,6.20
2023-05-19T13:51:45.118Z,6.07
2023-05-19T13:54:13.047Z,6.13
2023-05-19T13:56:46.433Z,6.07
2023-05-19T13:59:21.369Z,6.78
2023-05-19T14:01:50.644Z,6.45
2023-05-19T14:04:21.397Z,6.75
2023-05-19T14:06:53.440Z,7.07
2023-05-19T14:09:35.666Z,7.03
2023-05-19T14:12:06.160Z,7.07
2023-05-19T14:14:36.388Z,6.53
2023-05-19T14:17:05.687Z,6.22
2023-05-19T14:19:37.625Z,6.68
2023-05-19T14:22:10.562Z,7.10
2023-05-19T14:24:38.409Z,6.70
2023-05-19T14:27:08.890Z,6.10
2023-05-19T14:29:37.385Z,6.30
2023-05-19T14:32:06.531Z,6.43
2023-05-19T14:34:35.549Z,6.70
2023-05-19T14:37:05.105Z,6.18
2023-05-19T14:39:32.907Z,6.65
2023-05-19T14:42:00.219Z,6.45
2023-05-19T14:44:33.372Z,6.70
2023-05-19T14:47:01.497Z,6.15
2023-05-19T14:49:28.998Z,6.05
2023-05-19T14:51:57.572Z,5.88
2023-05-19T14:54:25.378Z,6.38
2023-05-19T14:56:52.770Z,6.30
2023-05-19T14:59:21.613Z,6.32
2023-05-19T15:01:49.389Z,6.28
2023-05-19T15:04:17.798Z,6.75
2023-05-19T15:06:52.247Z,6.47
2023-05-19T15:09:26.110Z,6.00
2023-05-19T15:11:57.780Z,6.22
2023-05-19T15:14:26.646Z,7.00
2023-05-19T15:16:55.261Z,6.28
2023-05-19T15:19:22.711Z,8.15
2023-05-19T15:21:50.961Z,7.57
2023-05-19T15:24:19.217Z,9.07
2023-05-19T15:26:47.599Z,7.35
2023-05-19T15:29:15.000Z,6.57
2023-05-19T15:31:42.502Z,6.60
2023-05-19T15:34:09.983Z,6.78
2023-05-19T15:36:37.298Z,6.90
2023-05-19T15:39:05.165Z,6.47
2023-05-19T15:41:32.645Z,6.60
2023-05-19T15:44:00.613Z,6.35
